sensor_id;sensor_type;location;lat;lon;timestamp;P1;durP1;ratioP1;P2;durP2;ratioP2
46110;SDS011;31849;55.992;37.252;2023-02-25T00:00:51;35.80;;;17.00;;
46110;SDS011;31849;55.992;37.252;2023-02-25T00:05:56;36.85;;;18.63;;
46110;SDS011;31849;55.992;37.252;2023-02-25T00:11:00;39.53;;;19.20;;
46110;SDS011;31849;55.992;37.252;2023-02-25T00:16:05;34.05;;;17.85;;
46110;SDS011;31849;55.992;37.252;2023-02-25T00:21:11;33.25;;;18.05;;
46110;SDS011;31849;55.992;37.252;2023-02-25T00:26:16;33.25;;;15.77;;
46110;SDS011;31849;55.992;37.252;2023-02-25T00:31:22;30.63;;;15.60;;
46110;SDS011;31849;55.992;37.252;2023-02-25T00:36:28;34.13;;;16.92;;
46110;SDS011;31849;55.992;37.252;2023-02-25T00:41:31;32.95;;;15.60;;
46110;SDS011;31849;55.992;37.252;2023-02-25T00:46:35;30.55;;;15.68;;
46110;SDS011;31849;55.992;37.252;2023-02-25T00:51:40;33.33;;;16.88;;
46110;SDS011;31849;55.992;37.252;2023-02-25T01:01:46;34.30;;;16.13;;
46110;SDS011;31849;55.992;37.252;2023-02-25T01:06:51;38.70;;;17.10;;
46110;SDS011;31849;55.992;37.252;2023-02-25T01:11:55;38.80;;;17.63;;
46110;SDS011;31849;55.992;37.252;2023-02-25T01:16:59;31.88;;;16.02;;
46110;SDS011;31849;55.992;37.252;2023-02-25T01:27:08;31.43;;;16.03;;
46110;SDS011;31849;55.992;37.252;2023-02-25T01:32:12;29.77;;;15.60;;
46110;SDS011;31849;55.992;37.252;2023-02-25T01:42:21;29.47;;;15.07;;
46110;SDS011;31849;55.992;37.252;2023-02-25T01:47:25;34.35;;;16.15;;
46110;SDS011;31849;55.992;37.252;2023-02-25T01:52:35;33.28;;;15.05;;
46110;SDS011;31849;55.992;37.252;2023-02-25T01:57:42;32.17;;;16.15;;
46110;SDS011;31849;55.992;37.252;2023-02-25T02:02:45;31.83;;;16.83;;
46110;SDS011;31849;55.992;37.252;2023-02-25T02:07:52;32.88;;;17.33;;
46110;SDS011;31849;55.992;37.252;2023-02-25T02:12:56;34.63;;;17.58;;
46110;SDS011;31849;55.992;37.252;2023-02-25T02:18:19;36.30;;;19.00;;
46110;SDS011;31849;55.992;37.252;2023-02-25T02:23:37;35.25;;;17.58;;
46110;SDS011;31849;55.992;37.252;2023-02-25T02:29:12;31.60;;;16.37;;
46110;SDS011;31849;55.992;37.252;2023-02-25T02:34:40;30.95;;;15.95;;
46110;SDS011;31849;55.992;37.252;2023-02-25T02:39:49;28.40;;;15.15;;
46110;SDS011;31849;55.992;37.252;2023-02-25T02:45:01;31.65;;;16.40;;
46110;SDS011;31849;55.992;37.252;2023-02-25T02:50:16;32.15;;;15.80;;
46110;SDS011;31849;55.992;37.252;2023-02-25T02:55:26;33.78;;;16.80;;
46110;SDS011;31849;55.992;37.252;2023-02-25T03:00:35;29.05;;;15.82;;
46110;SDS011;31849;55.992;37.252;2023-02-25T03:05:43;37.50;;;17.55;;
46110;SDS011;31849;55.992;37.252;2023-02-25T03:10:50;33.33;;;17.45;;
46110;SDS011;31849;55.992;37.252;2023-02-25T03:15:54;35.03;;;18.17;;
46110;SDS011;31849;55.992;37.252;2023-02-25T03:21:04;35.28;;;17.85;;
46110;SDS011;31849;55.992;37.252;2023-02-25T03:26:16;34.53;;;18.42;;
46110;SDS011;31849;55.992;37.252;2023-02-25T03:31:26;36.28;;;19.38;;
46110;SDS011;31849;55.992;37.252;2023-02-25T03:36:34;42.53;;;19.90;;
46110;SDS011;31849;55.992;37.252;2023-02-25T03:41:42;39.53;;;19.48;;
46110;SDS011;31849;55.992;37.252;2023-02-25T03:46:48;44.95;;;20.70;;
46110;SDS011;31849;55.992;37.252;2023-02-25T03:51:55;39.92;;;20.23;;
46110;SDS011;31849;55.992;37.252;2023-02-25T03:57:01;38.20;;;17.42;;
46110;SDS011;31849;55.992;37.252;2023-02-25T04:02:05;33.83;;;17.70;;
46110;SDS011;31849;55.992;37.252;2023-02-25T04:07:10;34.72;;;17.20;;
46110;SDS011;31849;55.992;37.252;2023-02-25T04:17:17;32.72;;;16.95;;
46110;SDS011;31849;55.992;37.252;2023-02-25T04:22:22;31.73;;;17.10;;
46110;SDS011;31849;55.992;37.252;2023-02-25T04:27:26;31.05;;;17.27;;
46110;SDS011;31849;55.992;37.252;2023-02-25T04:32:29;29.30;;;15.32;;
46110;SDS011;31849;55.992;37.252;2023-02-25T04:37:34;31.90;;;17.65;;
46110;SDS011;31849;55.992;37.252;2023-02-25T04:47:41;27.65;;;14.70;;
46110;SDS011;31849;55.992;37.252;2023-02-25T04:52:46;27.73;;;14.38;;
46110;SDS011;31849;55.992;37.252;2023-02-25T05:02:53;34.60;;;16.17;;
46110;SDS011;31849;55.992;37.252;2023-02-25T05:07:58;31.10;;;15.77;;
46110;SDS011;31849;55.992;37.252;2023-02-25T05:13:02;31.90;;;16.33;;
46110;SDS011;31849;55.992;37.252;2023-02-25T05:18:05;33.95;;;16.15;;
46110;SDS011;31849;55.992;37.252;2023-02-25T05:23:10;30.33;;;15.35;;
46110;SDS011;31849;55.992;37.252;2023-02-25T05:28:14;30.52;;;15.35;;
46110;SDS011;31849;55.992;37.252;2023-02-25T05:33:17;32.58;;;15.93;;
46110;SDS011;31849;55.992;37.252;2023-02-25T05:38:22;29.95;;;15.68;;
46110;SDS011;31849;55.992;37.252;2023-02-25T05:43:26;28.58;;;15.75;;
46110;SDS011;31849;55.992;37.252;2023-02-25T05:48:30;29.27;;;15.30;;
46110;SDS011;31849;55.992;37.252;2023-02-25T05:53:36;28.13;;;14.15;;
46110;SDS011;31849;55.992;37.252;2023-02-25T05:58:40;25.88;;;14.13;;
46110;SDS011;31849;55.992;37.252;2023-02-25T06:03:46;23.42;;;13.93;;
46110;SDS011;31849;55.992;37.252;2023-02-25T06:08:52;24.55;;;14.27;;
46110;SDS011;31849;55.992;37.252;2023-02-25T06:13:55;21.83;;;12.88;;
46110;SDS011;31849;55.992;37.252;2023-02-25T06:19:00;25.70;;;14.23;;
46110;SDS011;31849;55.992;37.252;2023-02-25T06:24:05;24.55;;;14.35;;
46110;SDS011;31849;55.992;37.252;2023-02-25T06:29:09;24.52;;;13.70;;
46110;SDS011;31849;55.992;37.252;2023-02-25T06:34:13;21.20;;;12.18;;
46110;SDS011;31849;55.992;37.252;2023-02-25T06:39:18;20.63;;;12.43;;
46110;SDS011;31849;55.992;37.252;2023-02-25T06:44:21;20.75;;;12.60;;
46110;SDS011;31849;55.992;37.252;2023-02-25T06:49:25;22.52;;;12.63;;
46110;SDS011;31849;55.992;37.252;2023-02-25T06:54:30;18.67;;;11.98;;
46110;SDS011;31849;55.992;37.252;2023-02-25T07:04:36;20.33;;;11.35;;
46110;SDS011;31849;55.992;37.252;2023-02-25T07:09:41;18.52;;;11.50;;
46110;SDS011;31849;55.992;37.252;2023-02-25T07:19:48;22.10;;;12.60;;
46110;SDS011;31849;55.992;37.252;2023-02-25T07:24:53;18.33;;;11.68;;
46110;SDS011;31849;55.992;37.252;2023-02-25T07:35:01;20.48;;;12.50;;
46110;SDS011;31849;55.992;37.252;2023-02-25T07:40:08;19.17;;;11.55;;
46110;SDS011;31849;55.992;37.252;2023-02-25T07:45:14;18.38;;;12.27;;
46110;SDS011;31849;55.992;37.252;2023-02-25T07:50:17;18.17;;;11.30;;
46110;SDS011;31849;55.992;37.252;2023-02-25T07:55:22;16.55;;;10.32;;
46110;SDS011;31849;55.992;37.252;2023-02-25T08:00:26;22.67;;;12.13;;
46110;SDS011;31849;55.992;37.252;2023-02-25T08:05:32;16.48;;;11.73;;
46110;SDS011;31849;55.992;37.252;2023-02-25T08:10:37;17.02;;;11.10;;
46110;SDS011;31849;55.992;37.252;2023-02-25T08:15:40;16.25;;;10.75;;
46110;SDS011;31849;55.992;37.252;2023-02-25T08:20:44;15.40;;;10.98;;
46110;SDS011;31849;55.992;37.252;2023-02-25T08:25:52;17.45;;;11.05;;
46110;SDS011;31849;55.992;37.252;2023-02-25T08:30:57;15.25;;;10.35;;
46110;SDS011;31849;55.992;37.252;2023-02-25T08:41:11;18.52;;;11.48;;
46110;SDS011;31849;55.992;37.252;2023-02-25T08:46:15;14.77;;;10.18;;
46110;SDS011;31849;55.992;37.252;2023-02-25T08:51:22;15.82;;;10.23;;
46110;SDS011;31849;55.992;37.252;2023-02-25T08:56:36;18.02;;;11.35;;
46110;SDS011;31849;55.992;37.252;2023-02-25T09:01:46;16.85;;;10.45;;
46110;SDS011;31849;55.992;37.252;2023-02-25T09:06:49;14.45;;;9.73;;
46110;SDS011;31849;55.992;37.252;2023-02-25T09:17:00;14.50;;;10.10;;
46110;SDS011;31849;55.992;37.252;2023-02-25T09:22:04;13.43;;;10.35;;
46110;SDS011;31849;55.992;37.252;2023-02-25T09:27:10;15.23;;;10.00;;
46110;SDS011;31849;55.992;37.252;2023-02-25T09:37:18;17.23;;;9.50;;
46110;SDS011;31849;55.992;37.252;2023-02-25T09:42:24;16.02;;;9.95;;
46110;SDS011;31849;55.992;37.252;2023-02-25T09:47:36;13.35;;;9.23;;
46110;SDS011;31849;55.992;37.252;2023-02-25T09:52:57;11.70;;;8.68;;
46110;SDS011;31849;55.992;37.252;2023-02-25T09:58:13;14.07;;;9.80;;
46110;SDS011;31849;55.992;37.252;2023-02-25T10:03:21;14.18;;;9.68;;
46110;SDS011;31849;55.992;37.252;2023-02-25T10:08:29;12.30;;;8.95;;
46110;SDS011;31849;55.992;37.252;2023-02-25T10:13:43;10.90;;;8.35;;
46110;SDS011;31849;55.992;37.252;2023-02-25T10:24:08;11.98;;;8.32;;
46110;SDS011;31849;55.992;37.252;2023-02-25T10:29:24;11.95;;;8.23;;
46110;SDS011;31849;55.992;37.252;2023-02-25T10:34:30;10.02;;;7.75;;
46110;SDS011;31849;55.992;37.252;2023-02-25T10:39:39;11.63;;;7.53;;
46110;SDS011;31849;55.992;37.252;2023-02-25T10:44:44;11.65;;;7.72;;
46110;SDS011;31849;55.992;37.252;2023-02-25T10:55:23;8.52;;;6.55;;
46110;SDS011;31849;55.992;37.252;2023-02-25T11:00:31;12.40;;;7.88;;
46110;SDS011;31849;55.992;37.252;2023-02-25T11:05:37;10.40;;;7.43;;
46110;SDS011;31849;55.992;37.252;2023-02-25T11:10:44;10.35;;;6.72;;
46110;SDS011;31849;55.992;37.252;2023-02-25T11:16:06;8.40;;;6.18;;
46110;SDS011;31849;55.992;37.252;2023-02-25T11:21:13;7.15;;;5.75;;
46110;SDS011;31849;55.992;37.252;2023-02-25T11:26:24;10.27;;;6.72;;
46110;SDS011;31849;55.992;37.252;2023-02-25T11:31:33;10.70;;;7.35;;
46110;SDS011;31849;55.992;37.252;2023-02-25T11:36:38;9.95;;;6.65;;
46110;SDS011;31849;55.992;37.252;2023-02-25T11:41:42;7.93;;;6.70;;
46110;SDS011;31849;55.992;37.252;2023-02-25T11:46:51;11.15;;;7.47;;
46110;SDS011;31849;55.992;37.252;2023-02-25T11:57:11;13.02;;;7.43;;
46110;SDS011;31849;55.992;37.252;2023-02-25T12:02:31;12.07;;;7.18;;
46110;SDS011;31849;55.992;37.252;2023-02-25T12:07:51;9.73;;;6.90;;
46110;SDS011;31849;55.992;37.252;2023-02-25T12:13:31;10.85;;;7.13;;
46110;SDS011;31849;55.992;37.252;2023-02-25T12:24:52;8.88;;;6.05;;
46110;SDS011;31849;55.992;37.252;2023-02-25T12:36:00;8.85;;;6.65;;
46110;SDS011;31849;55.992;37.252;2023-02-25T12:41:19;12.45;;;6.97;;
46110;SDS011;31849;55.992;37.252;2023-02-25T12:46:44;9.77;;;6.53;;
46110;SDS011;31849;55.992;37.252;2023-02-25T12:52:05;10.05;;;7.25;;
46110;SDS011;31849;55.992;37.252;2023-02-25T12:57:24;10.18;;;7.35;;
46110;SDS011;31849;55.992;37.252;2023-02-25T13:02:42;10.95;;;7.20;;
46110;SDS011;31849;55.992;37.252;2023-02-25T13:19:50;19.50;;;8.90;;
46110;SDS011;31849;55.992;37.252;2023-02-25T13:25:12;13.75;;;9.20;;
46110;SDS011;31849;55.992;37.252;2023-02-25T13:30:20;13.85;;;8.65;;
46110;SDS011;31849;55.992;37.252;2023-02-25T13:35:37;13.45;;;8.18;;
46110;SDS011;31849;55.992;37.252;2023-02-25T13:40:50;10.18;;;7.43;;
46110;SDS011;31849;55.992;37.252;2023-02-25T13:46:04;13.32;;;7.85;;
46110;SDS011;31849;55.992;37.252;2023-02-25T13:51:42;10.95;;;7.55;;
46110;SDS011;31849;55.992;37.252;2023-02-25T13:57:00;13.07;;;9.02;;
46110;SDS011;31849;55.992;37.252;2023-02-25T14:08:01;16.38;;;10.88;;
46110;SDS011;31849;55.992;37.252;2023-02-25T14:18:58;17.63;;;11.00;;
46110;SDS011;31849;55.992;37.252;2023-02-25T14:24:23;16.15;;;8.85;;
46110;SDS011;31849;55.992;37.252;2023-02-25T14:29:35;15.88;;;11.63;;
46110;SDS011;31849;55.992;37.252;2023-02-25T14:34:48;16.30;;;10.85;;
46110;SDS011;31849;55.992;37.252;2023-02-25T14:40:06;19.83;;;11.63;;
46110;SDS011;31849;55.992;37.252;2023-02-25T14:45:22;17.77;;;13.35;;
46110;SDS011;31849;55.992;37.252;2023-02-25T14:50:30;16.10;;;10.98;;
46110;SDS011;31849;55.992;37.252;2023-02-25T15:07:06;18.35;;;11.73;;
46110;SDS011;31849;55.992;37.252;2023-02-25T15:12:23;14.65;;;9.38;;
46110;SDS011;31849;55.992;37.252;2023-02-25T15:23:43;18.35;;;10.73;;
46110;SDS011;31849;55.992;37.252;2023-02-25T15:28:54;16.55;;;10.65;;
46110;SDS011;31849;55.992;37.252;2023-02-25T15:39:47;19.08;;;10.73;;
46110;SDS011;31849;55.992;37.252;2023-02-25T15:44:56;18.15;;;11.73;;
46110;SDS011;31849;55.992;37.252;2023-02-25T15:50:51;21.05;;;12.77;;
46110;SDS011;31849;55.992;37.252;2023-02-25T15:56:21;21.13;;;13.07;;
46110;SDS011;31849;55.992;37.252;2023-02-25T16:06:48;20.65;;;12.55;;
46110;SDS011;31849;55.992;37.252;2023-02-25T16:12:03;22.83;;;13.93;;
46110;SDS011;31849;55.992;37.252;2023-02-25T16:17:13;23.25;;;14.65;;
46110;SDS011;31849;55.992;37.252;2023-02-25T16:22:20;23.73;;;13.88;;
46110;SDS011;31849;55.992;37.252;2023-02-25T16:27:30;23.50;;;14.02;;
46110;SDS011;31849;55.992;37.252;2023-02-25T16:32:48;26.58;;;15.10;;
46110;SDS011;31849;55.992;37.252;2023-02-25T16:38:02;28.08;;;16.15;;
46110;SDS011;31849;55.992;37.252;2023-02-25T16:43:11;29.80;;;14.70;;
46110;SDS011;31849;55.992;37.252;2023-02-25T16:48:20;26.83;;;15.23;;
46110;SDS011;31849;55.992;37.252;2023-02-25T16:53:29;27.52;;;16.15;;
46110;SDS011;31849;55.992;37.252;2023-02-25T16:58:33;28.33;;;16.27;;
46110;SDS011;31849;55.992;37.252;2023-02-25T17:03:40;27.92;;;17.17;;
46110;SDS011;31849;55.992;37.252;2023-02-25T17:08:48;25.98;;;14.45;;
46110;SDS011;31849;55.992;37.252;2023-02-25T17:13:53;26.95;;;15.98;;
46110;SDS011;31849;55.992;37.252;2023-02-25T17:19:01;28.15;;;16.98;;
46110;SDS011;31849;55.992;37.252;2023-02-25T17:24:10;26.08;;;16.00;;
46110;SDS011;31849;55.992;37.252;2023-02-25T17:29:16;26.10;;;14.90;;
46110;SDS011;31849;55.992;37.252;2023-02-25T17:34:24;30.92;;;15.93;;
46110;SDS011;31849;55.992;37.252;2023-02-25T17:39:33;30.73;;;17.95;;
46110;SDS011;31849;55.992;37.252;2023-02-25T17:44:44;33.88;;;18.30;;
46110;SDS011;31849;55.992;37.252;2023-02-25T17:49:49;30.38;;;17.38;;
46110;SDS011;31849;55.992;37.252;2023-02-25T17:54:54;28.60;;;15.38;;
46110;SDS011;31849;55.992;37.252;2023-02-25T18:00:09;33.35;;;17.55;;
46110;SDS011;31849;55.992;37.252;2023-02-25T18:05:20;32.30;;;18.58;;
46110;SDS011;31849;55.992;37.252;2023-02-25T18:10:40;34.20;;;17.23;;
46110;SDS011;31849;55.992;37.252;2023-02-25T18:15:44;33.13;;;18.92;;
46110;SDS011;31849;55.992;37.252;2023-02-25T18:21:00;33.73;;;19.27;;
46110;SDS011;31849;55.992;37.252;2023-02-25T18:26:11;33.35;;;20.05;;
46110;SDS011;31849;55.992;37.252;2023-02-25T18:31:16;35.08;;;20.13;;
46110;SDS011;31849;55.992;37.252;2023-02-25T18:36:22;27.53;;;15.93;;
46110;SDS011;31849;55.992;37.252;2023-02-25T18:41:28;32.40;;;18.58;;
46110;SDS011;31849;55.992;37.252;2023-02-25T18:46:31;31.48;;;17.90;;
46110;SDS011;31849;55.992;37.252;2023-02-25T18:51:36;34.58;;;18.67;;
46110;SDS011;31849;55.992;37.252;2023-02-25T18:56:40;33.47;;;18.25;;
46110;SDS011;31849;55.992;37.252;2023-02-25T19:01:43;37.65;;;20.38;;
46110;SDS011;31849;55.992;37.252;2023-02-25T19:06:49;26.73;;;14.75;;
46110;SDS011;31849;55.992;37.252;2023-02-25T19:11:52;38.63;;;19.63;;
46110;SDS011;31849;55.992;37.252;2023-02-25T19:16:55;36.78;;;20.17;;
46110;SDS011;31849;55.992;37.252;2023-02-25T19:22:00;40.10;;;20.73;;
46110;SDS011;31849;55.992;37.252;2023-02-25T19:27:04;46.60;;;21.70;;
46110;SDS011;31849;55.992;37.252;2023-02-25T19:32:07;42.33;;;22.20;;
46110;SDS011;31849;55.992;37.252;2023-02-25T19:37:13;44.83;;;20.58;;
46110;SDS011;31849;55.992;37.252;2023-02-25T19:42:18;44.67;;;21.10;;
46110;SDS011;31849;55.992;37.252;2023-02-25T19:47:21;40.33;;;20.52;;
46110;SDS011;31849;55.992;37.252;2023-02-25T19:52:26;48.65;;;24.77;;
46110;SDS011;31849;55.992;37.252;2023-02-25T19:57:31;47.15;;;22.73;;
46110;SDS011;31849;55.992;37.252;2023-02-25T20:02:35;43.80;;;21.38;;
46110;SDS011;31849;55.992;37.252;2023-02-25T20:07:40;45.53;;;22.67;;
46110;SDS011;31849;55.992;37.252;2023-02-25T20:12:45;50.15;;;25.15;;
46110;SDS011;31849;55.992;37.252;2023-02-25T20:17:48;48.58;;;24.08;;
46110;SDS011;31849;55.992;37.252;2023-02-25T20:22:56;43.88;;;22.55;;
46110;SDS011;31849;55.992;37.252;2023-02-25T20:28:00;52.92;;;24.27;;
46110;SDS011;31849;55.992;37.252;2023-02-25T20:33:04;45.88;;;22.58;;
46110;SDS011;31849;55.992;37.252;2023-02-25T20:38:10;46.75;;;22.45;;
46110;SDS011;31849;55.992;37.252;2023-02-25T20:43:18;30.88;;;17.27;;
46110;SDS011;31849;55.992;37.252;2023-02-25T20:48:24;41.35;;;20.75;;
46110;SDS011;31849;55.992;37.252;2023-02-25T20:53:31;31.17;;;14.80;;
46110;SDS011;31849;55.992;37.252;2023-02-25T20:58:35;36.17;;;16.98;;
46110;SDS011;31849;55.992;37.252;2023-02-25T21:03:38;41.35;;;19.80;;
46110;SDS011;31849;55.992;37.252;2023-02-25T21:08:43;28.33;;;14.68;;
46110;SDS011;31849;55.992;37.252;2023-02-25T21:13:47;36.50;;;17.70;;
46110;SDS011;31849;55.992;37.252;2023-02-25T21:18:52;27.85;;;15.32;;
46110;SDS011;31849;55.992;37.252;2023-02-25T21:23:57;30.50;;;16.90;;
46110;SDS011;31849;55.992;37.252;2023-02-25T21:34:03;32.20;;;17.05;;
46110;SDS011;31849;55.992;37.252;2023-02-25T21:39:11;37.42;;;17.67;;
46110;SDS011;31849;55.992;37.252;2023-02-25T21:49:18;31.35;;;17.70;;
46110;SDS011;31849;55.992;37.252;2023-02-25T21:54:23;26.50;;;14.65;;
46110;SDS011;31849;55.992;37.252;2023-02-25T22:04:29;28.20;;;15.02;;
46110;SDS011;31849;55.992;37.252;2023-02-25T22:09:34;28.20;;;14.82;;
46110;SDS011;31849;55.992;37.252;2023-02-25T22:14:37;30.02;;;16.23;;
46110;SDS011;31849;55.992;37.252;2023-02-25T22:19:41;28.77;;;13.00;;
46110;SDS011;31849;55.992;37.252;2023-02-25T22:24:46;34.03;;;17.65;;
46110;SDS011;31849;55.992;37.252;2023-02-25T22:29:49;34.30;;;16.60;;
46110;SDS011;31849;55.992;37.252;2023-02-25T22:34:52;31.45;;;15.75;;
46110;SDS011;31849;55.992;37.252;2023-02-25T22:39:57;31.90;;;15.63;;
46110;SDS011;31849;55.992;37.252;2023-02-25T22:50:04;29.80;;;16.92;;
46110;SDS011;31849;55.992;37.252;2023-02-25T22:55:11;31.33;;;15.88;;
46110;SDS011;31849;55.992;37.252;2023-02-25T23:00:15;33.58;;;17.75;;
46110;SDS011;31849;55.992;37.252;2023-02-25T23:05:19;31.75;;;16.45;;
46110;SDS011;31849;55.992;37.252;2023-02-25T23:10:23;32.70;;;16.95;;
46110;SDS011;31849;55.992;37.252;2023-02-25T23:15:28;36.70;;;19.55;;
46110;SDS011;31849;55.992;37.252;2023-02-25T23:20:34;39.72;;;19.02;;
46110;SDS011;31849;55.992;37.252;2023-02-25T23:25:40;38.45;;;19.88;;
46110;SDS011;31849;55.992;37.252;2023-02-25T23:35:47;47.08;;;24.52;;
46110;SDS011;31849;55.992;37.252;2023-02-25T23:40:52;52.35;;;25.05;;
46110;SDS011;31849;55.992;37.252;2023-02-25T23:46:01;43.15;;;20.77;;
46110;SDS011;31849;55.992;37.252;2023-02-25T23:51:06;50.30;;;24.58;;
46110;SDS011;31849;55.992;37.252;2023-02-25T23:56:11;51.25;;;25.38;;
